createdAt,value
2022-11-20T00:00:03.839Z,3.70
2022-11-20T00:02:34.410Z,5.60
2022-11-20T00:05:05.128Z,5.47
2022-11-20T00:07:37.566Z,5.40
2022-11-20T00:10:09.361Z,5.73
2022-11-20T00:12:40.138Z,4.63
2022-11-20T00:15:11.951Z,5.40
2022-11-20T00:17:42.564Z,3.47
2022-11-20T00:20:14.815Z,6.07
2022-11-20T00:22:47.279Z,3.70
2022-11-20T00:25:18.071Z,4.93
2022-11-20T00:27:48.893Z,4.70
2022-11-20T00:30:19.520Z,4.93
2022-11-20T00:32:50.133Z,3.70
2022-11-20T00:35:21.711Z,5.97
2022-11-20T00:37:53.921Z,3.93
2022-11-20T00:40:24.516Z,4.67
2022-11-20T00:42:55.133Z,4.77
2022-11-20T00:45:25.840Z,3.73
2022-11-20T00:47:56.417Z,4.90
2022-11-20T00:50:27.468Z,6.13
2022-11-20T00:52:59.676Z,6.80
2022-11-20T00:55:30.525Z,5.07
2022-11-20T00:58:04.406Z,5.37
2022-11-20T01:00:35.629Z,5.93
2022-11-20T01:03:06.583Z,6.43
2022-11-20T01:05:39.298Z,4.93
2022-11-20T01:08:12.130Z,7.53
2022-11-20T01:10:42.707Z,6.73
2022-11-20T01:13:31.001Z,7.10
2022-11-20T01:16:07.379Z,6.23
2022-11-20T01:18:38.518Z,8.17
2022-11-20T01:21:11.008Z,4.70
2022-11-20T01:23:44.463Z,6.13
2022-11-20T01:26:16.945Z,5.90
2022-11-20T01:28:48.754Z,7.93
2022-11-20T01:31:21.204Z,10.07
2022-11-20T01:33:53.778Z,10.47
2022-11-20T01:36:26.605Z,9.60
2022-11-20T01:39:00.253Z,12.77
2022-11-20T01:41:46.075Z,15.47
2022-11-20T01:44:20.436Z,25.43
2022-11-20T01:46:58.504Z,24.87
2022-11-20T01:49:36.998Z,20.00
2022-11-20T01:52:15.097Z,15.30
2022-11-20T01:54:53.632Z,14.00
2022-11-20T01:57:26.090Z,10.40
2022-11-20T02:00:01.754Z,9.90
2022-11-20T02:02:33.410Z,8.87
2022-11-20T02:05:16.373Z,9.87
2022-11-20T02:07:48.248Z,7.33
2022-11-20T02:10:22.748Z,7.50
2022-11-20T02:13:11.074Z,8.40
2022-11-20T02:15:42.769Z,7.70
2022-11-20T02:18:14.717Z,9.40
2022-11-20T02:20:48.874Z,10.57
2022-11-20T02:23:28.636Z,12.60
2022-11-20T02:26:04.976Z,12.77
2022-11-20T02:28:36.861Z,11.13
2022-11-20T02:31:09.714Z,11.50
2022-11-20T02:33:40.783Z,8.97
2022-11-20T02:36:15.304Z,9.83
2022-11-20T02:38:47.002Z,7.03
2022-11-20T02:41:20.566Z,8.67
2022-11-20T02:43:51.189Z,7.17
2022-11-20T02:46:22.179Z,8.40
2022-11-20T02:48:54.124Z,9.33
2022-11-20T02:51:25.634Z,10.07
2022-11-20T02:53:56.585Z,8.87
2022-11-20T02:56:30.278Z,8.30
2022-11-20T02:59:01.514Z,10.57
2022-11-20T03:01:32.552Z,8.67
2022-11-20T03:04:03.346Z,12.53
2022-11-20T03:06:34.362Z,8.27
2022-11-20T03:09:05.415Z,9.40
2022-11-20T03:11:37.873Z,10.33
2022-11-20T03:14:09.841Z,8.10
2022-11-20T03:19:12.258Z,8.77
2022-11-20T03:21:43.230Z,8.87
2022-11-20T03:24:14.354Z,7.33
2022-11-20T03:26:46.815Z,6.53
2022-11-20T03:29:18.562Z,8.00
2022-11-20T03:31:49.840Z,12.40
2022-11-20T03:34:21.665Z,9.83
2022-11-20T03:36:53.532Z,10.33
2022-11-20T03:39:24.564Z,12.17
2022-11-20T03:41:58.062Z,10.70
2022-11-20T03:44:29.058Z,10.23
2022-11-20T03:46:59.754Z,10.17
2022-11-20T03:49:31.193Z,10.53
2022-11-20T03:52:03.097Z,10.13
2022-11-20T03:54:34.813Z,10.47
2022-11-20T03:57:07.311Z,8.20
2022-11-20T03:59:38.651Z,8.67
2022-11-20T04:02:10.178Z,13.47
2022-11-20T04:04:41.294Z,11.97
2022-11-20T04:07:13.782Z,10.47
2022-11-20T04:09:45.407Z,11.57
2022-11-20T04:12:18.221Z,13.77
2022-11-20T04:14:49.909Z,11.40
2022-11-20T04:17:20.748Z,14.13
2022-11-20T04:19:51.736Z,11.57
2022-11-20T04:22:23.304Z,14.87
2022-11-20T04:24:54.455Z,15.37
2022-11-20T04:27:27.642Z,14.83
2022-11-20T04:29:58.743Z,12.10
2022-11-20T04:32:29.794Z,12.50
2022-11-20T04:35:01.513Z,11.10
2022-11-20T04:37:32.330Z,18.73
2022-11-20T04:40:03.519Z,27.07
2022-11-20T04:42:37.730Z,42.77
2022-11-20T04:45:09.366Z,47.87
2022-11-20T04:47:40.581Z,36.07
2022-11-20T04:50:12.977Z,32.80
2022-11-20T04:52:43.985Z,21.07
2022-11-20T04:55:15.413Z,17.10
2022-11-20T04:57:49.330Z,18.17
2022-11-20T05:00:21.727Z,21.83
2022-11-20T05:02:53.354Z,21.97
2022-11-20T05:05:24.398Z,23.70
2022-11-20T05:07:56.763Z,16.20
2022-11-20T05:10:29.256Z,15.13
2022-11-20T05:13:02.904Z,12.90
2022-11-20T05:15:34.875Z,12.53
2022-11-20T05:18:06.537Z,13.30
2022-11-20T05:20:38.212Z,13.60
2022-11-20T05:23:10.420Z,15.70
2022-11-20T05:25:41.476Z,17.33
2022-11-20T05:28:15.423Z,12.13
2022-11-20T05:30:46.440Z,15.13
2022-11-20T05:33:17.680Z,16.20
2022-11-20T05:35:50.406Z,17.30
2022-11-20T05:38:21.942Z,15.07
2022-11-20T05:40:53.013Z,15.90
2022-11-20T05:43:26.170Z,15.30
2022-11-20T05:45:58.220Z,13.57
2022-11-20T05:48:30.319Z,10.73
2022-11-20T05:51:02.994Z,10.87
2022-11-20T05:53:34.549Z,9.53
2022-11-20T05:56:06.137Z,10.63
2022-11-20T05:58:40.244Z,8.63
2022-11-20T06:01:14.357Z,8.17
2022-11-20T06:03:47.705Z,9.17
2022-11-20T06:06:20.014Z,8.63
2022-11-20T06:08:51.610Z,11.03
2022-11-20T06:11:24.050Z,9.90
2022-11-20T06:13:57.514Z,9.30
2022-11-20T06:16:28.182Z,11.90
2022-11-20T06:18:59.233Z,10.43
2022-11-20T06:21:31.598Z,13.47
2022-11-20T06:24:02.568Z,14.27
2022-11-20T06:26:34.689Z,13.00
2022-11-20T06:29:08.089Z,15.70
2022-11-20T06:31:40.176Z,15.03
2022-11-20T06:34:11.831Z,15.03
2022-11-20T06:36:43.413Z,14.43
2022-11-20T06:39:15.248Z,18.27
2022-11-20T06:41:46.565Z,15.10
2022-11-20T06:44:20.421Z,15.33
2022-11-20T06:46:52.275Z,16.37
2022-11-20T06:49:24.276Z,13.23
2022-11-20T06:51:55.628Z,16.27
2022-11-20T06:54:26.599Z,17.20
2022-11-20T06:56:58.480Z,14.37
2022-11-20T06:59:31.948Z,13.00
2022-11-20T07:02:04.201Z,12.83
2022-11-20T07:04:35.287Z,12.43
2022-11-20T07:07:06.342Z,11.97
2022-11-20T07:09:38.364Z,8.30
2022-11-20T07:12:09.830Z,10.87
2022-11-20T07:14:43.914Z,10.63
2022-11-20T07:17:15.200Z,12.23
2022-11-20T07:19:45.992Z,10.73
2022-11-20T07:22:17.253Z,12.37
2022-11-20T07:24:48.299Z,8.27
2022-11-20T07:27:19.069Z,11.10
2022-11-20T07:29:51.948Z,9.07
2022-11-20T07:32:23.277Z,10.90
2022-11-20T07:34:54.213Z,10.43
2022-11-20T07:37:25.304Z,10.47
2022-11-20T07:39:57.018Z,8.73
2022-11-20T07:42:28.437Z,8.60
2022-11-20T07:45:02.916Z,10.90
2022-11-20T07:47:39.677Z,12.23
2022-11-20T07:50:12.026Z,11.33
2022-11-20T07:52:43.785Z,10.87
2022-11-20T07:55:15.333Z,9.63
2022-11-20T07:57:46.235Z,11.13
2022-11-20T08:00:22.370Z,8.40
2022-11-20T08:02:54.617Z,7.97
2022-11-20T08:05:25.680Z,8.47
2022-11-20T08:07:57.320Z,9.13
2022-11-20T08:10:28.525Z,7.67
2022-11-20T08:13:13.073Z,7.93
2022-11-20T08:15:52.193Z,7.37
2022-11-20T08:18:31.104Z,8.80
2022-11-20T08:21:06.363Z,9.43
2022-11-20T08:23:38.258Z,11.17
2022-11-20T08:26:10.819Z,11.20
2022-11-20T08:28:41.967Z,9.67
2022-11-20T08:31:15.199Z,10.17
2022-11-20T08:33:46.613Z,9.80
2022-11-20T08:36:17.750Z,7.57
2022-11-20T08:38:53.008Z,9.37
2022-11-20T08:41:33.182Z,8.93
2022-11-20T08:44:06.760Z,9.37
2022-11-20T08:46:41.862Z,7.37
2022-11-20T08:49:15.737Z,10.53
2022-11-20T08:51:47.043Z,10.23
2022-11-20T08:54:21.290Z,9.23
2022-11-20T08:56:54.025Z,9.77
2022-11-20T08:59:50.870Z,8.30
2022-11-20T09:02:19.632Z,10.30
2022-11-20T09:04:50.619Z,6.90
2022-11-20T09:07:21.712Z,8.83
2022-11-20T09:10:16.555Z,7.13
2022-11-20T09:12:44.081Z,7.03
2022-11-20T09:15:16.298Z,7.73
2022-11-20T09:17:55.531Z,8.83
2022-11-20T09:20:26.908Z,8.00
2022-11-20T09:22:57.995Z,9.00
2022-11-20T09:25:29.305Z,10.30
2022-11-20T09:28:01.055Z,8.47
2022-11-20T09:30:33.309Z,8.30
2022-11-20T09:33:09.493Z,9.03
2022-11-20T09:35:41.153Z,10.37
2022-11-20T09:38:13.154Z,9.23
2022-11-20T09:40:50.885Z,8.87
2022-11-20T09:43:29.040Z,9.13
2022-11-20T09:46:12.007Z,7.00
2022-11-20T09:49:08.497Z,9.17
2022-11-20T09:51:50.268Z,9.40
2022-11-20T09:54:23.125Z,7.67
2022-11-20T09:56:58.669Z,7.10
2022-11-20T09:59:42.536Z,7.80
2022-11-20T10:02:22.658Z,7.63
2022-11-20T10:05:02.300Z,9.23
2022-11-20T10:07:37.858Z,8.07
2022-11-20T10:10:10.536Z,7.30
2022-11-20T10:13:00.953Z,7.67
2022-11-20T10:15:42.401Z,9.20
2022-11-20T10:18:22.939Z,8.47
2022-11-20T10:21:08.256Z,7.50
2022-11-20T10:24:13.264Z,9.23
2022-11-20T10:26:56.036Z,6.67
2022-11-20T10:29:33.519Z,6.87
2022-11-20T10:32:07.462Z,8.80
2022-11-20T10:34:47.899Z,7.50
2022-11-20T10:37:27.205Z,9.40
2022-11-20T10:40:03.742Z,7.93
2022-11-20T10:42:40.122Z,6.60
2022-11-20T10:45:23.022Z,8.23
2022-11-20T10:47:54.745Z,7.53
2022-11-20T10:50:27.046Z,5.57
2022-11-20T10:53:10.353Z,6.40
2022-11-20T10:55:49.096Z,7.07
2022-11-20T10:58:30.121Z,6.73
2022-11-20T11:01:09.096Z,6.43
2022-11-20T11:03:40.508Z,5.37
2022-11-20T11:06:17.313Z,6.63
2022-11-20T11:08:53.569Z,6.90
2022-11-20T11:11:27.328Z,5.97
2022-11-20T11:14:09.503Z,7.30
2022-11-20T11:16:53.319Z,8.23
2022-11-20T11:19:24.898Z,7.60
2022-11-20T11:21:58.391Z,6.93
2022-11-20T11:24:42.118Z,6.97
2022-11-20T11:27:19.589Z,7.73
2022-11-20T11:29:51.075Z,6.67
2022-11-20T11:32:24.932Z,6.73
2022-11-20T11:35:06.724Z,5.77
2022-11-20T11:37:39.749Z,7.20
2022-11-20T11:40:30.346Z,7.93
2022-11-20T11:43:04.622Z,8.23
2022-11-20T11:45:34.332Z,8.67
2022-11-20T11:48:13.029Z,7.50
2022-11-20T11:50:53.741Z,7.40
2022-11-20T11:53:28.992Z,9.77
2022-11-20T11:56:07.764Z,8.60
2022-11-20T11:58:48.065Z,8.33
2022-11-20T12:01:29.552Z,8.40
2022-11-20T12:04:08.402Z,11.07
2022-11-20T12:06:43.872Z,8.10
2022-11-20T12:09:16.933Z,8.83
2022-11-20T12:11:54.985Z,9.33
2022-11-20T12:14:31.145Z,8.23
2022-11-20T12:17:01.963Z,6.43
2022-11-20T12:19:35.730Z,7.00
2022-11-20T12:22:17.714Z,8.13
2022-11-20T12:24:59.324Z,7.20
2022-11-20T12:27:46.387Z,7.57
2022-11-20T12:30:19.696Z,7.90
2022-11-20T12:33:24.612Z,8.00
2022-11-20T12:36:11.486Z,8.67
2022-11-20T12:39:17.692Z,6.87
2022-11-20T12:42:25.627Z,7.60
2022-11-20T12:45:31.395Z,7.80
2022-11-20T12:48:23.057Z,6.43
2022-11-20T12:51:15.169Z,6.53
2022-11-20T12:53:59.393Z,6.20
2022-11-20T12:56:41.762Z,7.57
2022-11-20T12:59:29.446Z,5.57
2022-11-20T13:02:15.407Z,5.27
2022-11-20T13:05:11.873Z,8.80
2022-11-20T13:07:44.833Z,6.90
2022-11-20T13:10:24.563Z,7.93
2022-11-20T13:13:01.719Z,6.20
2022-11-20T13:15:49.082Z,8.37
2022-11-20T13:18:23.666Z,6.60
2022-11-20T13:20:55.216Z,8.80
2022-11-20T13:23:30.924Z,8.10
2022-11-20T13:26:10.254Z,5.60
2022-11-20T13:28:43.310Z,7.40
2022-11-20T13:31:37.428Z,9.93
2022-11-20T13:34:16.582Z,8.50
2022-11-20T13:36:55.525Z,7.70
2022-11-20T13:39:30.501Z,9.10
2022-11-20T13:42:03.519Z,6.97
2022-11-20T13:44:41.265Z,7.40
2022-11-20T13:47:27.059Z,7.60
2022-11-20T13:50:01.635Z,9.37
2022-11-20T13:52:46.558Z,7.63
2022-11-20T13:55:24.594Z,6.40
2022-11-20T13:58:17.513Z,7.17
2022-11-20T14:00:53.229Z,8.83
2022-11-20T14:03:58.578Z,7.50
2022-11-20T14:06:29.887Z,7.00
2022-11-20T14:09:02.870Z,6.77
2022-11-20T14:11:35.802Z,9.83
2022-11-20T14:14:10.294Z,7.00
2022-11-20T14:16:42.590Z,8.13
2022-11-20T14:19:32.356Z,8.73
2022-11-20T14:22:22.094Z,9.80
2022-11-20T14:25:04.523Z,8.70
2022-11-20T14:27:40.596Z,7.60
2022-11-20T14:30:20.466Z,8.23
2022-11-20T14:32:52.642Z,7.03
2022-11-20T14:35:27.829Z,7.57
2022-11-20T14:38:01.938Z,8.90
2022-11-20T14:40:35.797Z,7.07
2022-11-20T14:43:20.711Z,9.83
2022-11-20T14:45:58.756Z,7.47
2022-11-20T14:48:36.413Z,9.80
2022-11-20T14:51:07.520Z,8.73
2022-11-20T14:53:40.612Z,6.70
2022-11-20T14:56:13.050Z,8.33
2022-11-20T14:58:44.480Z,7.73
2022-11-20T15:01:17.318Z,7.17
2022-11-20T15:03:48.519Z,6.87
2022-11-20T15:06:31.195Z,7.60
2022-11-20T15:09:04.434Z,6.90
2022-11-20T15:11:38.679Z,7.47
2022-11-20T15:14:14.108Z,6.47
2022-11-20T15:16:45.322Z,7.13
2022-11-20T15:19:24.178Z,6.70
2022-11-20T15:21:55.333Z,7.53
2022-11-20T15:24:28.924Z,7.93
2022-11-20T15:26:59.935Z,7.47
2022-11-20T15:29:30.736Z,8.13
2022-11-20T15:32:02.086Z,7.03
2022-11-20T15:34:32.962Z,5.83
2022-11-20T15:37:04.635Z,5.77
2022-11-20T15:39:38.630Z,5.87
2022-11-20T15:42:09.665Z,6.83
2022-11-20T15:44:40.527Z,8.17
2022-11-20T15:47:13.482Z,7.23
2022-11-20T15:49:44.535Z,7.50
2022-11-20T15:52:16.926Z,10.43
2022-11-20T15:54:50.970Z,6.57
2022-11-20T15:57:22.009Z,5.87
2022-11-20T15:59:53.578Z,7.03
2022-11-20T16:02:24.414Z,6.00
2022-11-20T16:04:55.522Z,6.77
2022-11-20T16:07:27.107Z,5.83
2022-11-20T16:10:01.070Z,5.93
2022-11-20T16:12:48.583Z,6.70
2022-11-20T16:15:36.400Z,7.17
2022-11-20T16:18:08.446Z,7.47
2022-11-20T16:20:39.575Z,6.20
2022-11-20T16:23:11.832Z,5.93
2022-11-20T16:25:45.222Z,5.50
2022-11-20T16:28:19.103Z,6.60
2022-11-20T16:30:50.525Z,8.50
2022-11-20T16:33:22.571Z,6.73
2022-11-20T16:35:54.296Z,5.37
2022-11-20T16:38:26.833Z,5.90
2022-11-20T16:41:06.299Z,6.93
2022-11-20T16:43:37.172Z,6.33
2022-11-20T16:46:08.599Z,5.97
2022-11-20T16:48:39.420Z,5.60
2022-11-20T16:51:13.159Z,6.13
2022-11-20T16:53:44.570Z,7.33
2022-11-20T16:56:19.708Z,6.27
2022-11-20T16:58:52.598Z,6.70
2022-11-20T17:01:26.415Z,6.33
2022-11-20T17:04:01.612Z,5.87
2022-11-20T17:06:35.288Z,6.13
2022-11-20T17:09:10.790Z,7.57
2022-11-20T17:11:44.419Z,8.33
2022-11-20T17:14:16.322Z,8.17
2022-11-20T17:16:47.427Z,5.33
2022-11-20T17:19:19.470Z,6.67
2022-11-20T17:21:50.727Z,8.03
2022-11-20T17:24:22.933Z,9.97
2022-11-20T17:26:58.500Z,8.90
2022-11-20T17:29:29.401Z,11.77
2022-11-20T17:32:01.318Z,11.33
2022-11-20T17:34:33.360Z,11.03
2022-11-20T17:37:04.470Z,9.93
2022-11-20T17:39:35.554Z,8.50
2022-11-20T17:42:25.083Z,8.40
2022-11-20T17:44:56.737Z,8.27
2022-11-20T17:47:28.332Z,13.50
2022-11-20T17:49:59.420Z,14.07
2022-11-20T17:52:30.431Z,13.80
2022-11-20T17:55:01.336Z,13.90
2022-11-20T17:57:51.448Z,12.97
2022-11-20T18:00:23.248Z,13.47
2022-11-20T18:02:54.063Z,10.80
2022-11-20T18:05:26.639Z,9.03
2022-11-20T18:07:58.673Z,14.93
2022-11-20T18:10:32.785Z,12.27
2022-11-20T18:13:05.541Z,9.57
2022-11-20T18:15:36.388Z,9.83
2022-11-20T18:18:07.615Z,9.67
2022-11-20T18:20:40.121Z,8.33
2022-11-20T18:23:11.016Z,8.83
2022-11-20T18:25:44.514Z,9.30
2022-11-20T18:28:17.446Z,7.90
2022-11-20T18:30:50.206Z,6.83
2022-11-20T18:33:26.944Z,8.50
2022-11-20T18:35:59.457Z,8.00
2022-11-20T18:38:30.526Z,9.20
2022-11-20T18:41:03.798Z,8.70
2022-11-20T18:43:51.145Z,6.57
2022-11-20T18:46:23.433Z,7.00
2022-11-20T18:48:55.242Z,10.27
2022-11-20T18:51:27.216Z,7.60
2022-11-20T18:53:58.488Z,9.33
2022-11-20T18:56:29.549Z,11.70
2022-11-20T18:59:03.694Z,10.00
2022-11-20T19:01:35.241Z,9.13
2022-11-20T19:04:10.875Z,9.43
2022-11-20T19:06:42.923Z,11.33
2022-11-20T19:11:09.707Z,9.77
2022-11-20T19:13:41.609Z,9.97
2022-11-20T19:16:17.702Z,9.67
2022-11-20T19:18:50.336Z,11.90
2022-11-20T19:21:23.599Z,10.80
2022-11-20T19:23:55.767Z,9.10
2022-11-20T19:26:30.084Z,8.40
2022-11-20T19:29:01.734Z,10.67
2022-11-20T20:14:05.507Z,9.60
2022-11-20T20:16:36.798Z,8.70
2022-11-20T20:19:08.723Z,7.63
2022-11-20T20:21:39.809Z,7.80
2022-11-20T20:24:12.885Z,8.97
2022-11-20T20:26:44.284Z,7.93
2022-11-20T20:29:16.986Z,10.10
2022-11-20T20:31:48.212Z,8.43
2022-11-20T20:34:20.977Z,8.03
2022-11-20T20:36:52.317Z,9.27
2022-11-20T20:39:24.991Z,8.60
2022-11-20T20:41:56.979Z,6.50
2022-11-20T20:44:45.955Z,7.77
2022-11-20T20:47:17.749Z,7.13
2022-11-20T20:49:48.653Z,8.47
2022-11-20T20:52:20.189Z,6.87
2022-11-20T20:54:50.960Z,8.00
2022-11-20T20:57:22.188Z,8.20
2022-11-20T20:59:55.283Z,10.57
2022-11-20T21:02:26.961Z,9.43
2022-11-20T21:04:58.737Z,8.70
2022-11-20T21:07:30.599Z,7.03
2022-11-20T21:10:01.608Z,7.33
2022-11-20T21:12:34.056Z,8.07
2022-11-20T21:15:07.304Z,6.67
2022-11-20T21:17:38.512Z,9.37
2022-11-20T21:20:30.516Z,7.63
2022-11-20T21:23:00.469Z,6.97
2022-11-20T21:25:31.784Z,7.70
2022-11-20T21:28:02.535Z,7.13
2022-11-20T21:30:35.438Z,6.13
2022-11-20T21:33:07.257Z,9.17
2022-11-20T21:35:39.028Z,7.27
2022-11-20T21:38:09.944Z,6.37
2022-11-20T21:40:40.949Z,14.03
2022-11-20T21:43:11.768Z,6.73
2022-11-20T21:45:44.056Z,5.97
2022-11-20T21:48:15.474Z,6.13
2022-11-20T21:50:46.927Z,5.90
2022-11-20T21:53:17.801Z,6.87
2022-11-20T21:55:57.234Z,5.93
2022-11-20T21:58:28.334Z,5.47
2022-11-20T22:01:01.096Z,5.37
2022-11-20T22:03:32.045Z,7.07
2022-11-20T22:06:04.115Z,4.70
2022-11-20T22:08:36.945Z,5.27
2022-11-20T22:11:09.725Z,4.63
2022-11-20T22:13:57.266Z,6.33
2022-11-20T22:16:30.825Z,6.13
2022-11-20T22:19:03.234Z,6.20
2022-11-20T22:21:35.785Z,5.33
2022-11-20T22:24:07.761Z,5.93
2022-11-20T22:26:41.669Z,5.10
2022-11-20T22:29:18.057Z,6.30
2022-11-20T22:31:51.595Z,5.93
2022-11-20T22:34:24.535Z,6.47
2022-11-20T22:36:56.489Z,7.10
2022-11-20T22:39:27.553Z,7.70
2022-11-20T22:41:58.885Z,5.83
2022-11-20T22:44:30.538Z,5.20
2022-11-20T22:47:08.705Z,5.00
2022-11-20T22:49:42.914Z,6.83
2022-11-20T22:52:13.809Z,4.20
2022-11-20T22:54:44.441Z,5.13
2022-11-20T22:57:15.145Z,5.57
2022-11-20T22:59:45.920Z,4.20
2022-11-20T23:02:18.592Z,4.83
2022-11-20T23:04:49.208Z,6.93
2022-11-20T23:07:20.046Z,6.40
2022-11-20T23:09:50.709Z,8.53
2022-11-20T23:12:21.333Z,4.63
2022-11-20T23:14:52.204Z,6.47
2022-11-20T23:17:24.530Z,6.87
2022-11-20T23:19:55.154Z,5.23
2022-11-20T23:22:26.023Z,5.20
2022-11-20T23:24:56.876Z,4.83
2022-11-20T23:27:28.405Z,4.97
2022-11-20T23:29:59.886Z,6.03
2022-11-20T23:32:32.241Z,8.10
2022-11-20T23:35:02.867Z,7.07
2022-11-20T23:37:33.693Z,7.63
2022-11-20T23:40:04.308Z,7.70
2022-11-20T23:42:34.906Z,8.20
2022-11-20T23:45:05.523Z,10.70
2022-11-20T23:47:37.803Z,10.50
2022-11-20T23:50:09.102Z,11.07
2022-11-20T23:52:39.840Z,7.83
2022-11-20T23:55:10.909Z,7.10
2022-11-20T23:57:41.668Z,7.17
